Time;durP1;ratioP1;P1;durP2;ratioP2;P2;SDS_P1;SDS_P2;PMS_P1;PMS_P2;Temp;Humidity;BMP_temperature;BMP_pressure;BME280_temperature;BME280_humidity;BME280_pressure;Samples;Min_cycle;Max_cycle;Signal;HPM_P1;HPM_P2
2023/04/21 00:01:28;;;;;;;35.60;24.07;;;7.50;76.90;;;;;;6194386;23;20024;-92
2023/04/21 00:03:55;;;;;;;38.77;24.57;;;7.50;76.80;;;;;;6202161;23;20020;-90
2023/04/21 00:06:29;;;;;;;38.07;24.73;;;7.50;76.80;;;;;;6213867;23;20012;-91
2023/04/21 00:08:55;;;;;;;40.43;24.57;;;7.50;76.80;;;;;;6213445;23;20331;-90
2023/04/21 00:11:21;;;;;;;37.87;23.97;;;7.50;76.70;;;;;;6192912;23;20156;-90
2023/04/21 00:13:55;;;;;;;34.20;23.43;;;7.50;76.80;;;;;;6191923;23;20074;-92
2023/04/21 00:16:21;;;;;;;36.27;23.70;;;7.50;76.80;;;;;;6190504;23;20016;-90
2023/04/21 00:18:47;;;;;;;36.50;23.77;;;7.50;76.60;;;;;;6186728;23;20023;-90
2023/04/21 00:21:13;;;;;;;37.97;23.53;;;7.50;76.60;;;;;;6217656;23;20060;-91
2023/04/21 00:23:39;;;;;;;32.60;23.43;;;7.50;76.50;;;;;;6190865;23;20022;-90
2023/04/21 00:26:16;;;;;;;40.63;24.30;;;7.50;76.50;;;;;;6193805;23;20028;-90
2023/04/21 00:28:42;;;;;;;35.40;23.03;;;7.50;76.50;;;;;;6199196;23;20035;-89
2023/04/21 00:31:10;;;;;;;37.37;24.03;;;7.40;76.50;;;;;;6218379;23;20012;-91
2023/04/21 00:33:39;;;;;;;37.10;24.33;;;7.40;76.50;;;;;;6216504;23;20024;-91
2023/04/21 00:36:07;;;;;;;42.27;24.23;;;7.40;76.50;;;;;;6217598;23;20028;-91
2023/04/21 00:38:36;;;;;;;37.53;23.98;;;7.30;76.50;;;;;;6188993;23;20016;-90
2023/04/21 00:41:04;;;;;;;40.10;24.00;;;7.20;76.50;;;;;;6193317;23;20468;-92
2023/04/21 00:43:30;;;;;;;33.83;23.73;;;7.20;76.50;;;;;;6167410;23;20016;-90
2023/04/21 00:45:59;;;;;;;35.13;24.17;;;7.20;76.50;;;;;;6193116;23;20117;-91
2023/04/21 00:48:28;;;;;;;39.13;23.93;;;7.20;76.40;;;;;;6209924;23;20074;-91
2023/04/21 00:50:53;;;;;;;37.33;23.60;;;7.20;76.50;;;;;;6218161;23;20043;-90
2023/04/21 00:53:24;;;;;;;34.50;24.33;;;7.10;76.50;;;;;;6191203;23;20013;-92
2023/04/21 00:55:55;;;;;;;37.13;25.02;;;7.00;76.50;;;;;;6193867;23;20022;-92
2023/04/21 00:58:31;;;;;;;38.27;24.07;;;7.00;76.40;;;;;;6170613;23;20528;-92
2023/04/21 01:01:06;;;;;;;40.17;25.03;;;7.00;76.50;;;;;;6187038;23;20024;-92
2023/04/21 01:03:32;;;;;;;38.60;25.00;;;7.00;76.50;;;;;;6206000;22;20509;-90
2023/04/21 01:05:58;;;;;;;36.03;24.87;;;6.90;76.50;;;;;;6193023;23;20019;-90
2023/04/21 01:08:45;;;;;;;;;;;;;;;;;;;;;
2023/04/21 01:11:12;;;;;;;45.17;27.17;;;6.90;76.60;;;;;;6221695;23;20075;-90
2023/04/21 01:13:39;;;;;;;38.23;25.77;;;6.80;76.60;;;;;;6191528;23;20446;-91
2023/04/21 01:16:15;;;;;;;36.70;26.10;;;6.80;76.60;;;;;;6218293;23;20024;-90
2023/04/21 01:18:40;;;;;;;35.60;24.97;;;6.80;76.70;;;;;;6210596;23;20035;-91
2023/04/21 01:21:12;;;;;;;39.53;25.73;;;6.80;76.60;;;;;;6218502;23;20055;-91
2023/04/21 01:23:48;;;;;;;40.67;25.70;;;6.80;76.70;;;;;;6215431;23;20091;-91
2023/04/21 01:26:17;;;;;;;42.57;25.43;;;6.80;76.70;;;;;;6194519;23;20023;-91
2023/04/21 01:28:43;;;;;;;37.10;25.37;;;6.80;76.80;;;;;;6211860;23;20026;-90
2023/04/21 01:31:19;;;;;;;40.27;26.93;;;6.80;76.70;;;;;;6216234;23;20054;-91
2023/04/21 01:33:45;;;;;;;35.57;25.23;;;6.80;76.70;;;;;;6192640;23;20020;-91
2023/04/21 01:36:20;;;;;;;39.40;26.50;;;6.80;76.70;;;;;;6216157;23;20020;-92
2023/04/21 01:38:51;;;;;;;36.77;26.37;;;6.80;76.80;;;;;;6214058;23;20099;-93
2023/04/21 01:41:20;;;;;;;39.23;25.07;;;6.70;76.80;;;;;;6218163;23;20020;-91
2023/04/21 01:43:46;;;;;;;39.60;25.53;;;6.70;76.80;;;;;;6215946;23;20024;-91
2023/04/21 01:46:12;;;;;;;42.80;25.97;;;6.80;76.80;;;;;;6191336;23;20019;-92
2023/04/21 01:48:43;;;;;;;43.80;26.27;;;6.80;76.80;;;;;;6209589;23;20044;-90
2023/04/21 01:51:09;;;;;;;37.25;24.80;;;6.80;76.80;;;;;;6218170;23;20027;-92
2023/04/21 01:53:35;;;;;;;37.63;26.27;;;6.80;76.90;;;;;;6229384;22;20028;-91
2023/04/21 01:56:01;;;;;;;40.97;26.17;;;6.80;76.80;;;;;;6192469;23;20043;-92
2023/04/21 01:58:27;;;;;;;39.07;26.20;;;6.70;76.90;;;;;;6198715;22;20016;-91
2023/04/21 02:00:53;;;;;;;39.73;24.90;;;6.70;76.80;;;;;;6217039;23;20016;-91
2023/04/21 02:03:19;;;;;;;42.33;25.40;;;6.70;76.90;;;;;;6190828;23;20016;-90
2023/04/21 02:05:48;;;;;;;38.30;25.03;;;6.70;76.80;;;;;;6167345;23;20050;-91
2023/04/21 02:08:17;;;;;;;41.37;25.97;;;6.70;76.80;;;;;;6208816;23;20028;-92
2023/04/21 02:10:42;;;;;;;39.00;25.30;;;6.70;76.80;;;;;;6192632;23;20048;-90
2023/04/21 02:13:08;;;;;;;42.60;25.40;;;6.70;76.80;;;;;;6190586;23;20023;-91
2023/04/21 02:15:36;;;;;;;41.07;25.97;;;6.70;76.80;;;;;;6217640;23;20065;-90
2023/04/21 02:18:05;;;;;;;38.20;25.47;;;6.70;76.80;;;;;;6207615;23;20027;-90
2023/04/21 02:20:31;;;;;;;35.57;25.07;;;6.70;76.70;;;;;;6192481;23;20024;-89
2023/04/21 02:22:57;;;;;;;38.60;25.83;;;6.70;76.80;;;;;;6164871;23;20140;-90
2023/04/21 02:25:26;;;;;;;39.53;26.30;;;6.70;76.70;;;;;;6192132;23;20051;-89
2023/04/21 02:27:52;;;;;;;44.50;26.63;;;6.70;76.70;;;;;;6208846;23;20020;-89
2023/04/21 02:30:21;;;;;;;43.10;26.57;;;6.70;76.80;;;;;;6216403;23;20020;-89
2023/04/21 02:32:47;;;;;;;42.23;26.27;;;6.70;76.80;;;;;;6240380;22;20020;-86
2023/04/21 02:35:12;;;;;;;40.60;26.10;;;6.60;76.80;;;;;;6191116;23;20085;-91
2023/04/21 02:37:38;;;;;;;41.13;26.53;;;6.60;76.80;;;;;;6185776;23;20024;-90
2023/04/21 02:40:05;;;;;;;37.93;26.90;;;6.60;76.70;;;;;;6166859;23;20020;-90
2023/04/21 02:42:34;;;;;;;40.43;27.60;;;6.60;76.80;;;;;;6189726;23;20020;-89
2023/04/21 02:45:11;;;;;;;43.10;27.17;;;6.60;76.80;;;;;;6192149;23;20048;-91
2023/04/21 02:47:45;;;;;;;43.33;28.97;;;6.60;76.80;;;;;;6206255;23;20024;-90
2023/04/21 02:50:18;;;;;;;38.43;28.60;;;6.60;76.90;;;;;;6217174;23;20447;-91
2023/04/21 02:52:43;;;;;;;40.50;28.87;;;6.60;76.80;;;;;;6199339;23;20023;-90
2023/04/21 02:55:09;;;;;;;44.10;28.90;;;6.60;76.90;;;;;;6191707;23;20020;-90
2023/04/21 02:57:35;;;;;;;43.10;30.93;;;6.50;76.80;;;;;;6208146;23;20016;-90
2023/04/21 03:00:01;;;;;;;46.50;30.30;;;6.50;76.80;;;;;;6242005;22;20027;-89
2023/04/21 03:02:27;;;;;;;44.63;30.33;;;6.50;76.80;;;;;;6190342;23;20686;-90
2023/04/21 03:04:53;;;;;;;45.37;30.57;;;6.50;76.90;;;;;;6191078;23;20020;-91
2023/04/21 03:07:21;;;;;;;43.53;29.60;;;6.50;76.90;;;;;;6205761;22;20020;-90
2023/04/21 03:09:47;;;;;;;44.80;30.50;;;6.50;76.90;;;;;;6190900;23;20012;-90
2023/04/21 03:12:13;;;;;;;50.13;30.70;;;6.40;76.90;;;;;;6212044;22;20553;-90
2023/04/21 03:14:39;;;;;;;45.87;30.23;;;6.40;76.80;;;;;;6215552;23;20071;-90
2023/04/21 03:17:05;;;;;;;43.70;29.23;;;6.40;76.80;;;;;;6181006;22;20023;-91
2023/04/21 03:19:31;;;;;;;42.90;27.30;;;6.30;76.90;;;;;;6215201;23;20090;-89
2023/04/21 03:21:57;;;;;;;40.53;28.67;;;6.30;76.90;;;;;;6217253;23;20027;-90
2023/04/21 03:24:25;;;;;;;48.07;29.20;;;6.30;76.90;;;;;;6215135;23;20024;-91
2023/04/21 03:26:51;;;;;;;45.50;28.97;;;6.30;77.00;;;;;;6208936;23;20020;-90
2023/04/21 03:29:17;;;;;;;42.77;28.60;;;6.30;77.10;;;;;;6216010;23;20024;-90
2023/04/21 03:31:44;;;;;;;41.87;28.30;;;6.30;77.10;;;;;;6243667;22;20012;-90
2023/04/21 03:34:10;;;;;;;44.97;28.53;;;6.30;77.10;;;;;;6192297;23;20454;-90
2023/04/21 03:36:38;;;;;;;41.20;28.67;;;6.30;77.10;;;;;;6187907;23;20030;-89
2023/04/21 03:39:05;;;;;;;41.57;27.60;;;6.30;77.10;;;;;;6217190;23;20020;-90
2023/04/21 03:41:32;;;;;;;44.63;27.03;;;6.30;77.20;;;;;;6193246;23;20024;-90
2023/04/21 03:44:00;;;;;;;40.20;27.10;;;6.30;77.20;;;;;;6216638;23;20017;-89
2023/04/21 03:46:26;;;;;;;40.27;26.37;;;6.20;77.10;;;;;;6188523;23;20476;-89
2023/04/21 03:48:52;;;;;;;35.80;25.67;;;6.20;77.10;;;;;;6212814;23;20020;-91
2023/04/21 03:51:20;;;;;;;41.90;25.77;;;6.20;77.10;;;;;;6219150;23;20020;-92
2023/04/21 03:53:48;;;;;;;40.50;25.50;;;6.20;77.20;;;;;;6217076;23;20035;-91
2023/04/21 03:56:14;;;;;;;39.40;25.47;;;6.20;77.10;;;;;;6215898;23;20024;-90
2023/04/21 03:58:40;;;;;;;37.70;24.10;;;6.10;77.10;;;;;;6225967;22;20016;-90
2023/04/21 04:01:06;;;;;;;36.47;25.30;;;6.10;77.20;;;;;;6243773;23;20023;-90
2023/04/21 04:03:33;;;;;;;39.43;25.60;;;6.10;77.20;;;;;;6216526;23;20624;-89
2023/04/21 04:06:01;;;;;;;38.33;24.87;;;6.10;77.20;;;;;;6218797;23;20024;-90
2023/04/21 04:08:27;;;;;;;39.60;24.80;;;6.10;77.10;;;;;;6185732;23;20028;-91
2023/04/21 04:10:55;;;;;;;42.23;24.47;;;6.10;77.20;;;;;;6192934;23;20338;-92
2023/04/21 04:13:30;;;;;;;41.13;24.70;;;6.10;77.30;;;;;;6215197;23;20048;-95
2023/04/21 04:15:57;;;;;;;39.20;23.20;;;6.10;77.30;;;;;;6219347;23;20100;-90
2023/04/21 04:18:26;;;;;;;39.67;24.73;;;6.10;77.30;;;;;;6181400;23;20047;-90
2023/04/21 04:20:55;;;;;;;;;;;6.10;77.30;;;;;;6218991;23;20027;-91
2023/04/21 04:23:23;;;;;;;33.90;22.60;;;6.10;77.60;;;;;;6214856;23;19915;-90
2023/04/21 04:25:50;;;;;;;33.77;23.47;;;6.10;77.40;;;;;;6217969;23;20046;-91
2023/04/21 04:28:16;;;;;;;39.43;24.57;;;6.10;77.30;;;;;;6196107;22;20031;-91
2023/04/21 04:30:42;;;;;;;40.60;24.20;;;6.20;77.30;;;;;;6217473;23;20107;-89
2023/04/21 04:33:08;;;;;;;38.47;23.80;;;6.10;77.30;;;;;;6215772;23;20194;-90
2023/04/21 04:35:34;;;;;;;36.77;24.10;;;6.10;77.30;;;;;;6192339;23;20028;-90
2023/04/21 04:38:01;;;;;;;34.37;23.10;;;6.10;77.30;;;;;;6209534;23;20121;-90
2023/04/21 04:40:29;;;;;;;36.30;23.23;;;6.20;77.40;;;;;;6193328;23;20078;-89
2023/04/21 04:42:55;;;;;;;37.03;23.17;;;6.20;77.40;;;;;;6191263;23;20020;-90
2023/04/21 04:45:21;;;;;;;36.83;23.00;;;6.20;77.50;;;;;;6193342;23;20058;-91
2023/04/21 04:47:50;;;;;;;33.03;22.17;;;6.20;77.40;;;;;;6207407;23;20028;-91
2023/04/21 04:50:19;;;;;;;34.57;23.40;;;6.20;77.50;;;;;;6193001;23;20350;-91
2023/04/21 04:52:48;;;;;;;37.53;23.80;;;6.20;77.50;;;;;;6201543;23;20016;-90
2023/04/21 04:55:17;;;;;;;36.00;22.50;;;6.30;77.40;;;;;;6194318;23;20102;-91
2023/04/21 04:57:45;;;;;;;36.00;22.23;;;6.30;77.40;;;;;;6209115;23;20086;-89
2023/04/21 05:00:13;;;;;;;35.33;22.23;;;6.30;77.30;;;;;;6193891;23;20066;-90
2023/04/21 05:02:41;;;;;;;35.33;22.50;;;6.40;77.40;;;;;;6190912;23;20012;-91
2023/04/21 05:05:14;;;;;;;36.37;21.77;;;6.40;77.40;;;;;;6218354;23;20016;-89
2023/04/21 05:07:40;;;;;;;32.37;21.73;;;6.40;77.30;;;;;;6209512;23;20556;-90
2023/04/21 05:10:09;;;;;;;32.00;21.63;;;6.50;77.30;;;;;;6192000;23;20023;-88
2023/04/21 05:12:38;;;;;;;32.10;20.83;;;6.50;77.20;;;;;;6189678;23;20498;-90
2023/04/21 05:15:05;;;;;;;38.23;22.10;;;6.60;77.20;;;;;;6192466;23;20069;-89
2023/04/21 05:17:35;;;;;;;31.30;20.90;;;6.60;77.20;;;;;;6198428;22;20024;-89
2023/04/21 05:20:03;;;;;;;35.63;22.33;;;6.70;77.30;;;;;;6217746;23;20020;-91
2023/04/21 05:22:37;;;;;;;30.38;19.90;;;6.80;77.30;;;;;;6203732;23;20114;-90
2023/04/21 05:25:03;;;;;;;35.97;20.17;;;6.90;77.30;;;;;;6217295;23;20023;-90
2023/04/21 05:27:29;;;;;;;28.37;19.27;;;7.00;77.30;;;;;;6184098;23;20019;-91
2023/04/21 05:29:56;;;;;;;34.10;19.47;;;7.00;77.20;;;;;;6217250;23;20016;-92
2023/04/21 05:32:21;;;;;;;31.47;18.90;;;7.20;77.00;;;;;;6215274;22;20016;-90
2023/04/21 05:34:52;;;;;;;27.73;18.43;;;7.20;77.00;;;;;;6217592;23;20331;-91
2023/04/21 05:37:18;;;;;;;29.30;17.60;;;7.40;77.00;;;;;;6186498;23;20012;-90
2023/04/21 05:39:44;;;;;;;27.87;18.50;;;7.40;76.90;;;;;;6217013;23;20091;-90
2023/04/21 05:42:10;;;;;;;28.83;17.50;;;7.50;76.90;;;;;;6215663;22;20020;-91
2023/04/21 05:44:36;;;;;;;25.10;16.60;;;7.60;77.00;;;;;;6191548;23;20020;-90
2023/04/21 05:47:05;;;;;;;28.53;17.37;;;7.80;77.00;;;;;;6208575;22;20442;-89
2023/04/21 05:49:31;;;;;;;26.03;16.00;;;8.00;76.80;;;;;;6214784;23;20102;-91
2023/04/21 05:51:56;;;;;;;27.57;16.47;;;8.30;76.60;;;;;;6217212;23;20459;-90
2023/04/21 05:54:22;;;;;;;26.07;15.37;;;8.50;76.40;;;;;;6178411;23;20026;-90
2023/04/21 05:56:48;;;;;;;26.57;14.60;;;8.60;76.10;;;;;;6186450;23;20078;-90
2023/04/21 05:59:14;;;;;;;20.30;13.67;;;8.80;75.80;;;;;;6201422;23;20552;-89
2023/04/21 06:01:43;;;;;;;22.87;13.40;;;9.00;75.50;;;;;;6216969;23;20197;-89
2023/04/21 06:04:09;;;;;;;22.03;13.70;;;9.10;75.10;;;;;;6215322;23;20315;-92
2023/04/21 06:06:35;;;;;;;25.20;13.17;;;9.20;74.90;;;;;;6237516;22;20018;-90
2023/04/21 06:09:04;;;;;;;23.23;13.23;;;9.30;74.70;;;;;;6187893;23;20032;-92
2023/04/21 06:11:30;;;;;;;26.43;13.63;;;9.40;74.50;;;;;;6216859;23;20125;-91
2023/04/21 06:13:58;;;;;;;21.40;12.67;;;9.40;74.40;;;;;;6239064;22;20024;-89
2023/04/21 06:16:24;;;;;;;24.33;13.03;;;9.50;74.60;;;;;;6161692;23;20027;-89
2023/04/21 06:18:50;;;;;;;24.07;13.13;;;9.50;74.30;;;;;;6210619;23;20021;-91
2023/04/21 06:21:16;;;;;;;21.80;12.17;;;9.60;74.30;;;;;;6216834;23;20146;-90
2023/04/21 06:23:42;;;;;;;18.27;12.63;;;9.70;74.00;;;;;;6214511;23;20040;-92
2023/04/21 06:26:13;;;;;;;21.97;12.50;;;9.80;73.50;;;;;;6214403;23;20023;-90
2023/04/21 06:28:39;;;;;;;21.20;12.87;;;9.80;73.60;;;;;;6184736;23;20051;-91
2023/04/21 06:31:18;;;;;;;;;;;;;;;;;;;;;
2023/04/21 06:33:44;;;;;;;20.57;12.23;;;10.00;73.30;;;;;;6225897;23;20043;-91
2023/04/21 06:36:13;;;;;;;19.77;11.90;;;10.00;73.20;;;;;;6214364;23;20024;-91
2023/04/21 06:38:40;;;;;;;20.37;11.93;;;10.00;72.60;;;;;;6163436;23;20443;-89
2023/04/21 06:44:17;;;;;;;24.87;12.83;;;10.10;72.10;;;;;;6146804;22;20024;-92
2023/04/21 06:46:48;;;;;;;20.37;11.70;;;10.20;72.20;;;;;;6208085;23;20020;-91
2023/04/21 06:49:22;;;;;;;21.27;12.20;;;10.20;72.20;;;;;;6189899;23;20119;-92
2023/04/21 06:52:13;;;;;;;23.45;12.05;;;10.30;71.90;;;;;;6192622;23;20042;-89
2023/04/21 06:54:39;;;;;;;24.70;12.07;;;10.30;71.20;;;;;;6218609;23;20017;-90
2023/04/21 06:57:42;;;;;;;21.33;11.27;;;10.40;71.70;;;;;;6170009;22;20051;-89
2023/04/21 07:00:08;;;;;;;24.60;12.90;;;10.50;71.00;;;;;;6216239;23;20023;-91
2023/04/21 07:02:40;;;;;;;19.83;12.07;;;10.50;71.50;;;;;;6190247;23;20012;-90
2023/04/21 07:05:12;;;;;;;20.80;12.77;;;10.60;71.50;;;;;;6217592;23;20017;-93
2023/04/21 07:07:49;;;;;;;19.63;12.00;;;10.70;71.60;;;;;;6193463;22;20020;-93
2023/04/21 07:10:37;;;;;;;23.67;12.30;;;10.70;71.00;;;;;;6193056;23;20016;-90
2023/04/21 07:13:34;;;;;;;19.03;11.53;;;10.80;71.20;;;;;;6193189;23;20084;-91
2023/04/21 07:16:23;;;;;;;26.03;11.77;;;10.90;70.70;;;;;;6208358;23;20012;-90
2023/04/21 07:19:26;;;;;;;;;;;;;;;;;;;;;
2023/04/21 07:22:03;;;;;;;19.27;11.70;;;11.00;70.20;;;;;;6220649;23;20072;-91
2023/04/21 07:24:29;;;;;;;23.43;12.03;;;11.00;71.00;;;;;;6213539;23;20012;-90
2023/04/21 07:26:55;;;;;;;20.43;11.43;;;11.00;71.00;;;;;;6201246;23;20082;-90
2023/04/21 07:29:23;;;;;;;26.53;12.03;;;11.10;71.10;;;;;;6126814;23;20526;-90
2023/04/21 07:31:50;;;;;;;22.83;10.90;;;11.10;70.90;;;;;;6118198;23;20086;-92
2023/04/21 07:34:16;;;;;;;18.63;11.73;;;11.10;70.80;;;;;;6100373;23;20059;-91
2023/04/21 07:36:45;;;;;;;23.53;12.20;;;11.20;70.80;;;;;;6113506;23;20019;-90
2023/04/21 07:39:13;;;;;;;23.40;12.40;;;11.30;71.30;;;;;;6113745;23;20020;-91
2023/04/21 07:41:42;;;;;;;18.90;11.23;;;11.30;71.10;;;;;;6139530;23;20111;-94
2023/04/21 07:44:08;;;;;;;20.03;10.90;;;11.40;70.50;;;;;;6105572;23;20024;-94
2023/04/21 07:46:36;;;;;;;21.13;11.07;;;11.40;70.40;;;;;;6111910;23;20022;-90
2023/04/21 07:49:05;;;;;;;18.20;11.33;;;11.30;70.50;;;;;;6141704;23;20021;-91
2023/04/21 07:51:36;;;;;;;22.07;11.83;;;11.40;70.60;;;;;;6165829;23;20031;-93
2023/04/21 07:54:10;;;;;;;19.02;12.30;;;11.50;70.40;;;;;;6174472;23;20016;-89
2023/04/21 07:56:36;;;;;;;20.90;11.40;;;11.50;70.50;;;;;;6200507;23;20522;-91
2023/04/21 07:59:02;;;;;;;21.00;11.60;;;11.50;70.40;;;;;;6185489;22;20045;-90
2023/04/21 08:01:28;;;;;;;19.17;11.13;;;11.60;70.50;;;;;;6201248;23;20097;-89
2023/04/21 08:03:57;;;;;;;19.23;11.90;;;11.70;70.50;;;;;;6173106;23;20437;-89
2023/04/21 08:06:23;;;;;;;22.45;11.93;;;11.80;70.70;;;;;;6170579;23;20012;-91
2023/04/21 08:08:54;;;;;;;19.20;11.63;;;11.90;70.30;;;;;;6174812;22;20031;-90
2023/04/21 08:11:23;;;;;;;20.45;12.07;;;12.00;70.10;;;;;;6177850;23;20020;-91
2023/04/21 08:13:49;;;;;;;17.67;10.95;;;12.00;70.00;;;;;;6181516;23;20019;-91
2023/04/21 08:16:17;;;;;;;23.65;10.82;;;12.00;69.70;;;;;;6182364;23;20095;-89
2023/04/21 08:18:48;;;;;;;18.00;11.02;;;12.00;69.60;;;;;;6188548;22;20550;-91
2023/04/21 08:21:14;;;;;;;26.08;11.23;;;12.10;69.70;;;;;;6209603;23;20115;-89
2023/04/21 08:23:55;;;;;;;;;;;;;;;;;;;;;
2023/04/21 08:26:24;;;;;;;22.00;11.43;;;12.30;69.20;;;;;;6231316;23;20430;-90
2023/04/21 08:28:51;;;;;;;19.33;10.65;;;12.50;69.80;;;;;;6164858;23;20023;-91
2023/04/21 08:31:20;;;;;;;20.98;11.02;;;12.80;69.50;;;;;;6208443;23;20020;-89
2023/04/21 08:33:48;;;;;;;18.65;11.57;;;12.90;69.10;;;;;;6194793;23;20028;-90
2023/04/21 08:36:16;;;;;;;18.60;11.15;;;13.00;69.20;;;;;;6174973;23;20090;-90
2023/04/21 08:38:47;;;;;;;21.88;11.07;;;13.10;68.80;;;;;;6180164;23;20059;-92
2023/04/21 08:41:19;;;;;;;18.40;10.00;;;13.50;68.30;;;;;;6207581;23;20024;-91
2023/04/21 08:43:45;;;;;;;;;;;13.50;68.10;;;;;;6202492;23;20078;-89
2023/04/21 08:46:11;;;;;;;17.52;10.52;;;13.70;66.10;;;;;;6175430;23;19954;-90
2023/04/21 08:48:38;;;;;;;20.85;10.48;;;14.10;68.00;;;;;;6188664;22;20055;-90
2023/04/21 08:51:30;;;;;;;19.75;10.73;;;14.20;67.80;;;;;;6208249;23;20016;-92
2023/04/21 08:54:30;;;;;;;20.63;10.32;;;14.40;67.40;;;;;;6189859;22;20039;-92
2023/04/21 08:56:56;;;;;;;17.75;10.00;;;14.70;65.40;;;;;;6185127;23;20016;-88
2023/04/21 08:59:43;;;;;;;20.77;10.13;;;15.10;66.70;;;;;;6163000;23;20081;-92
2023/04/21 09:02:16;;;;;;;16.80;9.75;;;15.80;66.20;;;;;;6206133;22;20031;-91
2023/04/21 09:04:46;;;;;;;18.08;9.27;;;16.40;64.70;;;;;;6207646;23;20062;-90
2023/04/21 09:07:49;;;;;;;17.25;9.93;;;16.50;64.90;;;;;;6200245;22;20052;-92
2023/04/21 09:11:04;;;;;;;16.83;9.45;;;16.70;63.20;;;;;;6207573;23;20051;-94
2023/04/21 09:13:44;;;;;;;16.75;9.13;;;16.60;63.60;;;;;;6175289;23;20031;-91
2023/04/21 09:16:23;;;;;;;20.83;9.70;;;16.40;64.60;;;;;;6182708;23;20035;-92
2023/04/21 09:18:50;;;;;;;17.20;9.80;;;16.30;63.80;;;;;;6197383;23;20376;-90
2023/04/21 09:21:28;;;;;;;;;;;;;;;;;;;;;
2023/04/21 09:23:56;;;;;;;17.77;9.15;;;16.10;64.70;;;;;;6218466;22;20024;-91
2023/04/21 09:26:33;;;;;;;13.43;8.82;;;16.40;64.40;;;;;;6178252;23;20028;-91
2023/04/21 09:29:09;;;;;;;;;;;;;;;;;;;;;
2023/04/21 09:31:43;;;;;;;17.45;9.52;;;16.70;63.70;;;;;;6212570;23;20017;-93
2023/04/21 09:34:20;;;;;;;16.00;9.13;;;16.50;62.60;;;;;;6205923;23;20055;-89
2023/04/21 09:37:04;;;;;;;22.58;9.85;;;16.40;62.80;;;;;;6200234;23;20040;-93
2023/04/21 09:39:46;;;;;;;20.85;9.05;;;16.40;62.60;;;;;;6208397;23;20024;-92
2023/04/21 09:42:17;;;;;;;16.45;8.73;;;16.40;63.20;;;;;;6169811;22;20102;-92
2023/04/21 09:44:43;;;;;;;14.70;8.70;;;16.40;63.00;;;;;;6210880;23;20812;-90
2023/04/21 09:47:16;;;;;;;15.50;8.88;;;16.20;63.40;;;;;;6190046;22;20058;-91
2023/04/21 09:49:43;;;;;;;18.20;9.15;;;16.10;63.60;;;;;;6186790;23;20040;-90
2023/04/21 09:52:36;;;;;;;16.30;9.35;;;16.10;63.80;;;;;;6168597;22;20031;-90
2023/04/21 09:55:14;;;;;;;17.58;8.93;;;16.00;63.10;;;;;;6211702;23;20693;-92
2023/04/21 09:57:53;;;;;;;20.40;9.82;;;16.00;63.10;;;;;;6203669;23;20016;-90
2023/04/21 10:00:31;;;;;;;17.83;8.98;;;16.00;63.60;;;;;;6210223;23;20051;-89
2023/04/21 10:03:12;;;;;;;14.68;9.23;;;16.00;63.50;;;;;;6208288;23;20206;-92
2023/04/21 10:05:55;;;;;;;16.92;8.50;;;16.00;63.40;;;;;;6237369;23;20016;-92
2023/04/21 10:08:48;;;;;;;18.42;9.00;;;16.20;63.30;;;;;;6192652;23;20083;-91
2023/04/21 10:11:15;;;;;;;20.50;9.05;;;16.50;62.90;;;;;;6210100;23;20020;-90
2023/04/21 10:13:53;;;;;;;15.85;8.70;;;16.90;63.30;;;;;;6165611;23;20066;-92
2023/04/21 10:16:22;;;;;;;20.23;9.02;;;17.20;62.70;;;;;;6209320;23;20382;-90
2023/04/21 10:19:01;;;;;;;15.45;8.45;;;17.30;62.20;;;;;;6216419;22;20020;-91
2023/04/21 10:21:30;;;;;;;24.50;8.75;;;17.20;61.50;;;;;;6163932;23;20023;-91
2023/04/21 10:26:58;;;;;;;22.70;8.77;;;17.00;62.10;;;;;;6163343;23;20024;-94
2023/04/21 10:29:36;;;;;;;13.85;8.65;;;16.90;61.50;;;;;;6189320;23;20024;-89
2023/04/21 10:32:03;;;;;;;19.50;8.98;;;16.80;61.60;;;;;;6209863;23;20031;-93
2023/04/21 10:34:53;;;;;;;16.30;8.88;;;17.00;61.70;;;;;;6195977;23;20024;-92
2023/04/21 10:37:21;;;;;;;16.42;9.07;;;17.00;61.00;;;;;;6181237;23;20039;-90
2023/04/21 10:39:54;;;;;;;15.73;9.20;;;17.10;60.70;;;;;;6185395;23;20076;-91
2023/04/21 10:42:28;;;;;;;22.67;9.23;;;17.20;60.60;;;;;;6196738;22;20265;-90
2023/04/21 10:45:29;;;;;;;17.30;8.93;;;17.20;60.90;;;;;;6209275;23;20390;-94
2023/04/21 10:48:23;;;;;;;14.70;8.57;;;17.40;61.10;;;;;;6047339;23;20018;-96
2023/04/21 10:50:54;;;;;;;19.38;8.55;;;17.40;60.10;;;;;;6144225;23;20048;-94
2023/04/21 10:54:35;;;;;;;15.18;8.63;;;17.40;59.70;;;;;;6182534;22;20020;-94
2023/04/21 10:56:51;;;;;;;19.60;8.98;;;17.40;60.10;;;;;;6190993;23;20020;-90
2023/04/21 10:59:20;;;;;;;17.50;8.60;;;17.50;60.50;;;;;;6184188;23;20016;-90
2023/04/21 11:02:02;;;;;;;15.48;8.48;;;17.70;60.20;;;;;;6210057;23;20107;-94
2023/04/21 11:04:34;;;;;;;18.45;8.43;;;17.90;60.40;;;;;;6209307;23;20027;-92
2023/04/21 11:07:19;;;;;;;15.43;8.32;;;18.10;60.40;;;;;;6204659;23;20020;-93
2023/04/21 11:10:04;;;;;;;13.77;8.05;;;18.20;60.10;;;;;;6195162;23;20027;-91
2023/04/21 11:12:42;;;;;;;12.18;7.95;;;18.10;60.20;;;;;;6192551;22;20028;-94
2023/04/21 11:15:14;;;;;;;17.02;7.22;;;18.20;59.30;;;;;;6185472;23;20020;-92
2023/04/21 11:17:55;;;;;;;12.73;7.47;;;18.20;59.50;;;;;;6149548;23;20028;-91
2023/04/21 11:20:21;;;;;;;16.58;7.30;;;18.20;59.20;;;;;;6184812;23;20125;-90
2023/04/21 11:23:12;;;;;;;17.77;7.95;;;18.20;59.70;;;;;;6181080;23;20089;-91
2023/04/21 11:25:44;;;;;;;16.38;6.65;;;18.40;59.40;;;;;;6207973;23;20024;-90
2023/04/21 11:28:25;;;;;;;14.95;6.95;;;18.40;59.00;;;;;;6201575;23;20032;-94
2023/04/21 11:30:53;;;;;;;13.40;6.85;;;18.50;57.20;;;;;;6210752;23;20085;-94
2023/04/21 11:33:25;;;;;;;9.30;6.57;;;18.50;57.80;;;;;;6192845;22;20031;-92
2023/04/21 11:35:57;;;;;;;18.05;6.30;;;18.50;57.50;;;;;;6209791;23;20020;-94
2023/04/21 11:38:34;;;;;;;;;;;;;;;;;;;;;
2023/04/21 11:41:10;;;;;;;12.52;6.15;;;18.40;57.40;;;;;;6212996;23;20867;-92
2023/04/21 11:43:41;;;;;;;16.30;7.10;;;18.30;57.90;;;;;;6209376;23;20012;-93
2023/04/21 11:46:32;;;;;;;13.68;6.35;;;18.50;58.20;;;;;;6210885;23;20020;-95
2023/04/21 11:49:30;;;;;;;14.65;5.72;;;18.70;56.30;;;;;;6183496;22;20023;-90
2023/04/21 11:51:59;;;;;;;11.25;5.75;;;18.80;56.20;;;;;;6211169;23;20108;-90
2023/04/21 11:54:28;;;;;;;13.85;5.85;;;18.80;56.50;;;;;;6169707;23;20059;-93
2023/04/21 11:57:36;;;;;;;16.17;5.95;;;18.60;57.00;;;;;;6198498;23;20096;-91
2023/04/21 12:00:24;;;;;;;9.57;5.55;;;18.40;56.10;;;;;;6033585;23;20069;-88
2023/04/21 12:03:09;;;;;;;11.55;5.38;;;18.20;56.60;;;;;;6187089;23;20443;-89
2023/04/21 12:05:35;;;;;;;11.15;5.80;;;18.20;57.40;;;;;;6206957;23;20086;-89
2023/04/21 12:08:04;;;;;;;13.75;6.03;;;18.40;56.60;;;;;;6200863;23;20016;-91
2023/04/21 12:10:30;;;;;;;14.70;5.60;;;18.50;56.40;;;;;;6231292;22;20012;-89
2023/04/21 12:12:59;;;;;;;15.20;5.80;;;18.50;56.30;;;;;;6204777;23;20016;-91
2023/04/21 12:15:25;;;;;;;9.55;5.15;;;18.50;56.70;;;;;;6207601;23;20019;-88
2023/04/21 12:17:53;;;;;;;11.93;5.30;;;18.60;57.00;;;;;;6181674;22;20019;-92
2023/04/21 12:20:22;;;;;;;15.57;5.65;;;18.70;56.80;;;;;;6207702;23;20027;-90
2023/04/21 12:22:51;;;;;;;14.27;5.63;;;18.70;56.10;;;;;;6203645;23;20016;-91
2023/04/21 12:25:17;;;;;;;14.02;6.03;;;18.70;55.90;;;;;;6207474;23;20016;-89
2023/04/21 12:27:53;;;;;;;11.60;5.20;;;18.80;56.50;;;;;;6154339;23;20026;-90
2023/04/21 12:30:21;;;;;;;10.38;4.88;;;18.90;55.90;;;;;;6214224;23;20024;-89
2023/04/21 12:32:50;;;;;;;14.93;5.40;;;18.90;55.70;;;;;;6220536;22;20030;-90
2023/04/21 12:35:50;;;;;;;14.65;6.40;;;18.90;55.90;;;;;;6185001;23;20230;-92
2023/04/21 12:38:19;;;;;;;13.23;6.28;;;18.90;56.60;;;;;;6168727;23;20123;-91
2023/04/21 12:40:48;;;;;;;15.13;6.35;;;18.90;57.00;;;;;;6211757;23;20062;-92
2023/04/21 12:43:14;;;;;;;16.42;6.63;;;18.80;56.50;;;;;;6199370;22;20090;-94
2023/04/21 12:45:39;;;;;;;10.60;6.28;;;18.60;56.70;;;;;;6211394;23;20024;-93
2023/04/21 12:48:10;;;;;;;12.30;5.80;;;18.40;57.10;;;;;;6227635;22;20016;-94
2023/04/21 12:53:36;;;;;;;15.82;6.22;;;18.40;56.70;;;;;;6076831;23;20919;-93
2023/04/21 12:56:23;;;;;;;12.02;6.20;;;18.50;57.30;;;;;;6201501;23;20020;-92
2023/04/21 12:58:52;;;;;;;15.13;6.18;;;18.40;57.10;;;;;;6182876;23;20043;-91
2023/04/21 13:01:23;;;;;;;13.55;6.10;;;18.30;57.30;;;;;;6212197;23;20016;-92
2023/04/21 13:03:58;;;;;;;11.50;5.55;;;18.20;57.20;;;;;;6207995;23;20020;-92
2023/04/21 13:06:27;;;;;;;18.48;5.95;;;18.20;57.50;;;;;;6209090;23;20049;-94
2023/04/21 13:08:55;;;;;;;14.65;5.55;;;18.30;57.80;;;;;;6163161;23;20020;-94
2023/04/21 13:11:41;;;;;;;13.07;5.68;;;18.60;57.40;;;;;;6186228;23;20020;-93
2023/04/21 13:14:36;;;;;;;11.85;5.28;;;18.80;57.50;;;;;;6172471;23;20116;-94